createdAt,value
2019-03-22T00:00:01.159Z,42.20
2019-03-22T00:02:33.314Z,43.50
2019-03-22T00:05:04.792Z,46.68
2019-03-22T00:07:35.345Z,45.38
2019-03-22T00:10:06.632Z,42.50
2019-03-22T00:12:37.254Z,51.50
2019-03-22T00:15:08.216Z,52.15
2019-03-22T00:17:38.891Z,48.75
2019-03-22T00:20:09.622Z,49.18
2019-03-22T00:22:40.131Z,49.85
2019-03-22T00:25:10.736Z,46.45
2019-03-22T00:27:41.298Z,45.73
2019-03-22T00:30:12.205Z,49.85
2019-03-22T00:32:42.755Z,46.80
2019-03-22T00:35:13.344Z,52.48
2019-03-22T00:37:43.918Z,49.85
2019-03-22T00:40:16.058Z,50.90
2019-03-22T00:42:46.633Z,47.88
2019-03-22T00:45:17.300Z,47.33
2019-03-22T00:47:47.782Z,52.10
2019-03-22T00:50:18.426Z,50.12
2019-03-22T00:52:48.983Z,52.88
2019-03-22T00:55:19.605Z,50.60
2019-03-22T00:57:50.088Z,51.10
2019-03-22T01:00:20.594Z,50.78
2019-03-22T01:02:51.240Z,57.10
2019-03-22T01:05:21.850Z,57.73
2019-03-22T01:07:52.464Z,50.40
2019-03-22T01:10:22.982Z,51.95
2019-03-22T01:12:53.501Z,51.63
2019-03-22T01:15:24.076Z,54.63
2019-03-22T01:17:54.653Z,52.25
2019-03-22T01:20:25.195Z,51.18
2019-03-22T01:22:55.763Z,48.02
2019-03-22T01:25:26.347Z,54.70
2019-03-22T01:27:56.999Z,56.98
2019-03-22T01:30:27.641Z,51.02
2019-03-22T01:32:58.145Z,51.15
2019-03-22T01:35:28.612Z,57.30
2019-03-22T01:37:59.307Z,53.25
2019-03-22T01:40:29.828Z,50.80
2019-03-22T01:43:00.310Z,50.63
2019-03-22T01:45:30.871Z,51.77
2019-03-22T01:48:01.359Z,55.90
2019-03-22T01:50:31.993Z,51.05
2019-03-22T01:53:02.801Z,56.28
2019-03-22T01:55:33.372Z,56.05
2019-03-22T01:58:03.971Z,54.60
2019-03-22T02:00:34.419Z,52.98
2019-03-22T02:03:05.205Z,53.87
2019-03-22T02:05:35.722Z,57.85
2019-03-22T02:08:06.338Z,50.48
2019-03-22T02:10:36.923Z,54.53
2019-03-22T02:13:08.824Z,50.52
2019-03-22T02:15:39.676Z,48.92
2019-03-22T02:18:10.316Z,55.17
2019-03-22T02:20:40.910Z,50.17
2019-03-22T02:23:11.540Z,54.30
2019-03-22T02:25:42.060Z,52.33
2019-03-22T02:28:12.635Z,49.08
2019-03-22T02:30:43.211Z,51.53
2019-03-22T02:33:13.710Z,56.73
2019-03-22T02:35:44.175Z,52.78
2019-03-22T02:38:14.660Z,55.58
2019-03-22T02:40:45.582Z,58.70
2019-03-22T02:43:16.085Z,58.08
2019-03-22T02:45:46.699Z,63.35
2019-03-22T02:48:17.429Z,56.80
2019-03-22T02:50:48.010Z,55.23
2019-03-22T02:53:18.639Z,60.20
2019-03-22T02:55:49.196Z,55.58
2019-03-22T02:58:21.368Z,57.50
2019-03-22T03:00:51.989Z,58.65
2019-03-22T03:03:22.495Z,68.52
2019-03-22T03:05:53.000Z,59.13
2019-03-22T03:08:23.660Z,67.67
2019-03-22T03:10:54.178Z,57.70
2019-03-22T03:13:24.735Z,59.50
2019-03-22T03:15:55.540Z,62.83
2019-03-22T03:18:27.083Z,57.55
2019-03-22T03:20:57.625Z,50.83
2019-03-22T03:23:28.303Z,48.92
2019-03-22T03:25:58.828Z,52.85
2019-03-22T03:28:36.796Z,51.13
2019-03-22T03:31:01.692Z,49.05
2019-03-22T03:33:32.254Z,53.15
2019-03-22T03:36:02.749Z,51.80
2019-03-22T03:38:33.447Z,50.95
2019-03-22T03:41:04.000Z,52.03
2019-03-22T03:43:34.476Z,58.30
2019-03-22T03:46:05.001Z,48.63
2019-03-22T03:48:35.486Z,47.25
2019-03-22T03:51:06.085Z,47.08
2019-03-22T03:53:36.660Z,45.83
2019-03-22T03:56:07.171Z,50.25
2019-03-22T03:58:51.750Z,45.03
2019-03-22T04:01:09.989Z,50.78
2019-03-22T04:03:40.638Z,49.58
2019-03-22T04:06:11.220Z,48.42
2019-03-22T04:08:41.771Z,52.15
2019-03-22T04:11:12.309Z,46.53
2019-03-22T04:13:43.472Z,44.67
2019-03-22T04:16:15.981Z,53.90
2019-03-22T04:18:48.534Z,56.58
2019-03-22T04:21:19.914Z,53.20
2019-03-22T04:23:50.456Z,51.48
2019-03-22T04:26:20.919Z,49.53
2019-03-22T04:29:06.070Z,48.85
2019-03-22T04:31:23.623Z,44.20
2019-03-22T04:33:54.297Z,45.73
2019-03-22T04:36:24.835Z,48.42
2019-03-22T04:38:55.460Z,46.13
2019-03-22T04:41:26.124Z,51.13
2019-03-22T04:43:56.687Z,48.52
2019-03-22T04:46:27.394Z,46.83
2019-03-22T04:48:58.126Z,43.70
2019-03-22T04:51:28.671Z,47.23
2019-03-22T04:53:59.571Z,44.27
2019-03-22T04:56:30.242Z,41.48
2019-03-22T04:59:00.929Z,44.60
2019-03-22T05:01:31.456Z,44.15
2019-03-22T05:04:02.068Z,45.70
2019-03-22T05:06:32.683Z,41.35
2019-03-22T05:09:04.026Z,41.50
2019-03-22T05:11:34.601Z,40.88
2019-03-22T05:14:05.320Z,44.63
2019-03-22T05:16:35.772Z,41.33
2019-03-22T05:19:06.468Z,42.43
2019-03-22T05:21:38.143Z,42.25
2019-03-22T05:24:08.765Z,44.53
2019-03-22T05:26:39.215Z,40.83
2019-03-22T05:29:09.711Z,43.15
2019-03-22T05:31:52.142Z,45.58
2019-03-22T05:34:22.841Z,43.58
2019-03-22T05:36:53.333Z,44.65
2019-03-22T05:39:23.801Z,42.62
2019-03-22T05:41:54.344Z,45.00
2019-03-22T05:44:24.962Z,42.60
2019-03-22T05:46:55.665Z,42.40
2019-03-22T05:49:26.226Z,45.52
2019-03-22T05:51:56.878Z,44.42
2019-03-22T05:54:27.436Z,42.93
2019-03-22T05:56:58.128Z,37.38
2019-03-22T05:59:28.877Z,40.55
2019-03-22T06:01:59.525Z,41.13
2019-03-22T06:04:30.243Z,40.73
2019-03-22T06:07:00.816Z,38.80
2019-03-22T06:09:31.312Z,40.63
2019-03-22T06:12:04.920Z,43.23
2019-03-22T06:14:35.621Z,45.15
2019-03-22T06:17:06.446Z,44.18
2019-03-22T06:19:37.441Z,44.27
2019-03-22T06:22:08.161Z,40.45
2019-03-22T06:24:38.652Z,42.90
2019-03-22T06:27:09.212Z,39.00
2019-03-22T06:29:40.830Z,42.30
2019-03-22T06:32:11.350Z,36.55
2019-03-22T06:34:41.981Z,38.48
2019-03-22T06:37:13.302Z,39.25
2019-03-22T06:39:43.995Z,40.92
2019-03-22T06:42:14.593Z,36.88
2019-03-22T06:44:45.148Z,39.90
2019-03-22T06:47:15.627Z,38.20
2019-03-22T06:49:46.120Z,33.33
2019-03-22T06:52:16.732Z,42.45
2019-03-22T06:54:47.229Z,38.30
2019-03-22T06:57:17.734Z,38.80
2019-03-22T06:59:48.284Z,36.73
2019-03-22T07:02:18.997Z,38.35
2019-03-22T07:04:49.543Z,34.78
2019-03-22T07:07:20.061Z,37.63
2019-03-22T07:09:50.622Z,32.60
2019-03-22T07:12:21.137Z,32.65
2019-03-22T07:14:51.687Z,35.05
2019-03-22T07:17:22.172Z,29.45
2019-03-22T07:19:52.732Z,38.20
2019-03-22T07:22:23.271Z,34.08
2019-03-22T07:24:53.843Z,34.92
2019-03-22T07:27:24.336Z,39.73
2019-03-22T07:29:55.078Z,33.10
2019-03-22T07:32:25.736Z,32.40
2019-03-22T07:34:57.352Z,33.67
2019-03-22T07:37:27.864Z,33.10
2019-03-22T07:39:58.471Z,33.33
2019-03-22T07:42:28.979Z,34.95
2019-03-22T07:44:59.614Z,38.85
2019-03-22T07:47:30.205Z,37.30
2019-03-22T07:50:00.764Z,29.37
2019-03-22T07:52:31.486Z,32.83
2019-03-22T07:55:02.162Z,31.90
2019-03-22T07:57:32.681Z,36.48
2019-03-22T08:00:04.977Z,31.20
2019-03-22T08:02:35.563Z,33.33
2019-03-22T08:05:06.605Z,32.93
2019-03-22T08:07:37.249Z,34.53
2019-03-22T08:10:08.673Z,29.42
2019-03-22T08:12:39.302Z,34.33
2019-03-22T08:15:10.035Z,34.15
2019-03-22T08:17:40.552Z,32.67
2019-03-22T08:20:11.301Z,32.67
2019-03-22T08:22:41.801Z,32.35
2019-03-22T08:25:13.377Z,29.75
2019-03-22T08:27:43.906Z,29.27
2019-03-22T08:30:14.494Z,29.40
2019-03-22T08:32:45.049Z,29.23
2019-03-22T08:35:15.646Z,27.27
2019-03-22T08:37:52.604Z,30.37
2019-03-22T08:40:18.449Z,28.35
2019-03-22T08:42:49.030Z,26.85
2019-03-22T08:45:19.892Z,27.58
2019-03-22T08:47:50.355Z,24.85
2019-03-22T08:50:21.146Z,26.42
2019-03-22T08:52:51.595Z,25.00
2019-03-22T08:55:22.255Z,28.62
2019-03-22T08:57:52.832Z,28.80
2019-03-22T09:00:23.351Z,27.42
2019-03-22T09:02:53.838Z,26.37
2019-03-22T09:05:24.462Z,19.95
2019-03-22T09:07:55.012Z,25.05
2019-03-22T09:10:25.776Z,22.07
2019-03-22T09:12:56.480Z,19.30
2019-03-22T09:15:26.953Z,19.82
2019-03-22T09:17:57.498Z,20.02
2019-03-22T09:20:28.109Z,23.67
2019-03-22T09:22:58.560Z,23.85
2019-03-22T09:25:29.176Z,23.62
2019-03-22T09:27:59.791Z,20.45
2019-03-22T09:30:30.813Z,18.73
2019-03-22T09:33:01.339Z,17.62
2019-03-22T09:35:31.949Z,21.33
2019-03-22T09:38:12.342Z,21.85
2019-03-22T09:40:34.930Z,21.50
2019-03-22T09:43:05.416Z,22.25
2019-03-22T09:45:35.997Z,23.02
2019-03-22T09:48:06.727Z,23.05
2019-03-22T09:50:37.297Z,20.68
2019-03-22T09:53:07.702Z,20.02
2019-03-22T09:55:38.892Z,19.52
2019-03-22T09:58:09.500Z,14.50
2019-03-22T10:00:40.072Z,19.80
2019-03-22T10:03:10.484Z,22.10
2019-03-22T10:05:41.117Z,21.93
2019-03-22T10:08:11.669Z,21.27
2019-03-22T10:10:42.339Z,19.02
2019-03-22T10:13:12.946Z,20.75
2019-03-22T10:15:43.577Z,21.82
2019-03-22T10:18:14.151Z,23.05
2019-03-22T10:20:44.836Z,17.67
2019-03-22T10:23:15.249Z,18.73
2019-03-22T10:25:45.890Z,19.95
2019-03-22T10:28:16.548Z,17.87
2019-03-22T10:30:47.156Z,19.35
2019-03-22T10:33:22.664Z,20.27
2019-03-22T10:35:50.253Z,19.98
2019-03-22T10:38:30.904Z,19.77
2019-03-22T10:40:53.069Z,21.30
2019-03-22T10:43:23.711Z,20.72
2019-03-22T10:45:54.355Z,19.85
2019-03-22T10:48:24.955Z,19.70
2019-03-22T10:50:55.695Z,18.45
2019-03-22T10:53:26.373Z,18.98
2019-03-22T10:55:57.358Z,18.73
2019-03-22T10:58:27.862Z,19.80
2019-03-22T11:00:59.326Z,19.87
2019-03-22T11:03:29.932Z,21.33
2019-03-22T11:06:00.481Z,20.60
2019-03-22T11:08:30.973Z,21.07
2019-03-22T11:11:01.552Z,20.30
2019-03-22T11:13:33.057Z,21.68
2019-03-22T11:16:03.562Z,21.93
2019-03-22T11:18:37.654Z,23.87
2019-03-22T11:21:06.716Z,27.10
2019-03-22T11:23:37.344Z,18.55
2019-03-22T11:26:07.903Z,27.50
2019-03-22T11:28:38.497Z,25.20
2019-03-22T11:31:09.056Z,25.90
2019-03-22T11:33:39.578Z,22.73
2019-03-22T11:36:10.311Z,21.40
2019-03-22T11:38:40.914Z,30.75
2019-03-22T11:41:11.473Z,26.07
2019-03-22T11:43:41.992Z,24.30
2019-03-22T11:46:12.622Z,23.22
2019-03-22T11:48:43.493Z,29.67
2019-03-22T11:51:14.063Z,28.60
2019-03-22T11:53:44.576Z,23.75
2019-03-22T11:56:15.135Z,21.40
2019-03-22T11:58:45.645Z,22.67
2019-03-22T12:01:21.307Z,22.48
2019-03-22T12:03:48.541Z,21.27
2019-03-22T12:06:19.189Z,18.47
2019-03-22T12:08:49.807Z,20.77
2019-03-22T12:11:21.338Z,26.12
2019-03-22T12:13:51.927Z,21.07
2019-03-22T12:16:24.257Z,21.77
2019-03-22T12:18:54.890Z,18.80
2019-03-22T12:21:25.425Z,22.82
2019-03-22T12:23:56.001Z,21.50
2019-03-22T12:26:27.992Z,21.40
2019-03-22T12:28:59.502Z,22.42
2019-03-22T12:31:31.055Z,19.90
2019-03-22T12:34:01.561Z,22.87
2019-03-22T12:36:32.058Z,21.52
2019-03-22T12:39:02.633Z,24.70
2019-03-22T12:41:33.338Z,21.55
2019-03-22T12:44:03.983Z,23.52
2019-03-22T12:46:35.573Z,20.70
2019-03-22T12:49:06.059Z,24.40
2019-03-22T12:51:36.549Z,24.35
2019-03-22T12:54:07.125Z,19.17
2019-03-22T12:56:37.753Z,21.50
2019-03-22T12:59:08.331Z,23.10
2019-03-22T13:01:38.851Z,24.82
2019-03-22T13:04:09.366Z,20.88
2019-03-22T13:06:39.981Z,18.27
2019-03-22T13:09:10.515Z,22.45
2019-03-22T13:11:41.167Z,23.40
2019-03-22T13:14:11.676Z,24.20
2019-03-22T13:16:42.286Z,25.32
2019-03-22T13:19:12.732Z,28.85
2019-03-22T13:21:43.460Z,23.62
2019-03-22T13:24:14.039Z,21.17
2019-03-22T13:26:44.596Z,24.23
2019-03-22T13:29:15.243Z,24.00
2019-03-22T13:31:45.735Z,23.32
2019-03-22T13:34:16.168Z,24.35
2019-03-22T13:36:46.803Z,20.02
2019-03-22T13:39:17.320Z,20.60
2019-03-22T13:41:47.831Z,20.12
2019-03-22T13:44:18.273Z,24.02
2019-03-22T13:46:49.987Z,22.17
2019-03-22T13:49:21.780Z,20.75
2019-03-22T13:51:52.413Z,25.27
2019-03-22T13:54:24.325Z,30.77
2019-03-22T13:56:54.933Z,26.33
2019-03-22T13:59:25.371Z,28.10
2019-03-22T14:01:56.096Z,103.53
2019-03-22T14:04:26.563Z,96.85
2019-03-22T14:06:57.035Z,54.70
2019-03-22T14:09:27.585Z,35.00
2019-03-22T14:12:00.245Z,40.35
2019-03-22T14:14:30.791Z,34.53
2019-03-22T14:17:01.343Z,33.85
2019-03-22T14:19:31.857Z,36.63
2019-03-22T14:22:02.396Z,33.98
2019-03-22T14:24:32.913Z,37.75
2019-03-22T14:27:03.397Z,49.25
2019-03-22T14:29:33.839Z,55.35
2019-03-22T14:32:04.411Z,35.20
2019-03-22T14:34:34.847Z,40.98
2019-03-22T14:37:05.399Z,33.48
2019-03-22T14:39:35.920Z,33.67
2019-03-22T14:42:06.398Z,30.55
2019-03-22T14:44:36.928Z,30.90
2019-03-22T14:47:07.426Z,30.08
2019-03-22T14:49:39.004Z,29.70
2019-03-22T14:52:09.482Z,30.48
2019-03-22T14:54:40.065Z,47.15
2019-03-22T14:57:11.526Z,44.58
2019-03-22T14:59:42.061Z,37.20
2019-03-22T15:02:12.661Z,45.90
2019-03-22T15:04:43.249Z,53.15
2019-03-22T15:07:19.488Z,51.92
2019-03-22T15:09:46.367Z,54.05
2019-03-22T15:12:17.656Z,59.13
2019-03-22T15:15:01.127Z,58.98
2019-03-22T15:17:35.740Z,68.10
2019-03-22T15:20:24.261Z,61.35
2019-03-22T15:23:08.387Z,61.55
2019-03-22T15:25:56.896Z,65.22
2019-03-22T15:28:34.598Z,58.08
2019-03-22T15:31:09.194Z,59.60
2019-03-22T15:36:37.212Z,56.75
2019-03-22T15:39:12.784Z,66.35
2019-03-22T15:41:43.437Z,78.60
2019-03-22T15:44:14.212Z,58.33
2019-03-22T15:46:44.811Z,59.58
2019-03-22T15:49:15.369Z,59.77
2019-03-22T15:51:46.174Z,68.70
2019-03-22T15:54:16.749Z,64.05
2019-03-22T15:56:47.251Z,70.97
2019-03-22T15:59:17.800Z,70.17
2019-03-22T16:01:48.244Z,59.38
2019-03-22T16:04:18.894Z,68.55
2019-03-22T16:06:49.414Z,104.50
2019-03-22T16:09:19.919Z,61.73
2019-03-22T16:11:50.415Z,71.10
2019-03-22T16:14:21.050Z,57.85
2019-03-22T16:16:51.568Z,60.00
2019-03-22T16:19:22.058Z,48.52
2019-03-22T16:21:52.578Z,45.67
2019-03-22T16:24:23.150Z,42.93
2019-03-22T16:26:53.733Z,35.13
2019-03-22T16:29:24.288Z,36.23
2019-03-22T16:31:54.817Z,46.42
2019-03-22T16:34:25.360Z,47.73
2019-03-22T16:36:55.802Z,49.55
2019-03-22T16:39:26.403Z,49.60
2019-03-22T16:41:57.687Z,47.08
2019-03-22T16:44:28.308Z,52.33
2019-03-22T16:46:58.735Z,55.63
2019-03-22T16:49:29.216Z,51.42
2019-03-22T16:51:59.670Z,50.05
2019-03-22T16:54:30.230Z,45.33
2019-03-22T16:57:01.054Z,40.55
2019-03-22T16:59:31.611Z,43.60
2019-03-22T17:02:02.153Z,51.58
2019-03-22T17:04:32.768Z,59.35
2019-03-22T17:07:03.312Z,68.75
2019-03-22T17:09:33.869Z,86.80
2019-03-22T17:12:04.378Z,93.33
2019-03-22T17:14:34.929Z,86.80
2019-03-22T17:17:06.461Z,83.27
2019-03-22T17:19:37.032Z,96.50
2019-03-22T17:22:07.682Z,82.33
2019-03-22T17:24:38.330Z,78.05
2019-03-22T17:27:09.373Z,73.60
2019-03-22T17:29:41.080Z,76.42
2019-03-22T17:32:11.550Z,76.40
2019-03-22T17:34:42.281Z,79.77
2019-03-22T17:37:12.719Z,75.05
2019-03-22T17:39:43.263Z,75.12
2019-03-22T17:42:13.774Z,78.55
2019-03-22T17:44:44.388Z,99.72
2019-03-22T17:47:14.813Z,98.92
2019-03-22T17:49:48.538Z,107.83
2019-03-22T17:52:18.048Z,102.53
2019-03-22T17:54:48.642Z,101.00
2019-03-22T17:57:19.195Z,96.95
2019-03-22T17:59:50.709Z,95.30
2019-03-22T18:02:21.271Z,111.08
2019-03-22T18:04:51.877Z,97.95
2019-03-22T18:07:22.475Z,100.70
2019-03-22T18:09:53.742Z,91.63
2019-03-22T18:12:24.357Z,92.20
2019-03-22T18:14:54.982Z,96.00
2019-03-22T18:17:25.453Z,111.85
2019-03-22T18:19:56.109Z,101.62
2019-03-22T18:22:26.703Z,98.70
2019-03-22T18:24:58.355Z,109.57
2019-03-22T18:27:28.878Z,91.70
2019-03-22T18:30:01.040Z,95.57
2019-03-22T18:32:31.628Z,97.37
2019-03-22T18:35:03.342Z,95.60
2019-03-22T18:37:33.934Z,92.25
2019-03-22T18:40:06.340Z,141.68
2019-03-22T18:42:36.795Z,110.52
2019-03-22T18:45:11.946Z,124.33
2019-03-22T18:47:43.549Z,147.57
2019-03-22T18:50:14.888Z,111.42
2019-03-22T18:52:45.430Z,182.30
2019-03-22T18:55:15.903Z,164.85
2019-03-22T18:57:47.499Z,154.72
2019-03-22T19:00:18.641Z,146.00
2019-03-22T19:02:49.175Z,145.47
2019-03-22T19:05:19.654Z,143.00
2019-03-22T19:07:50.260Z,141.50
2019-03-22T19:10:20.983Z,146.60
2019-03-22T19:12:51.507Z,161.52
2019-03-22T19:15:22.004Z,158.63
2019-03-22T19:17:52.587Z,166.45
2019-03-22T19:20:23.092Z,175.00
2019-03-22T19:22:53.636Z,168.02
2019-03-22T19:25:24.344Z,182.43
2019-03-22T19:27:54.863Z,178.45
2019-03-22T19:30:25.419Z,207.83
2019-03-22T19:32:55.923Z,197.35
2019-03-22T19:35:26.976Z,237.60
2019-03-22T19:37:57.589Z,226.67
2019-03-22T19:40:28.101Z,222.85
2019-03-22T19:42:58.567Z,206.78
2019-03-22T19:45:29.210Z,190.70
2019-03-22T19:47:59.749Z,155.30
2019-03-22T19:50:30.425Z,139.85
2019-03-22T19:53:00.960Z,150.90
2019-03-22T19:55:31.474Z,145.80
2019-03-22T19:58:02.041Z,127.00
2019-03-22T20:00:32.639Z,106.27
2019-03-22T20:03:03.182Z,69.25
2019-03-22T20:05:35.451Z,67.00
2019-03-22T20:08:05.905Z,64.55
2019-03-22T20:10:36.465Z,67.20
2019-03-22T20:13:06.910Z,74.47
2019-03-22T20:15:37.415Z,81.12
2019-03-22T20:18:07.949Z,66.22
2019-03-22T20:20:38.571Z,62.38
2019-03-22T20:23:09.037Z,58.38
2019-03-22T20:25:39.755Z,65.80
2019-03-22T20:28:10.440Z,66.12
2019-03-22T20:30:41.037Z,72.53
2019-03-22T20:33:11.581Z,56.08
2019-03-22T20:35:42.132Z,51.85
2019-03-22T20:38:12.652Z,48.13
2019-03-22T20:40:43.140Z,50.33
2019-03-22T20:43:13.657Z,45.70
2019-03-22T20:45:44.128Z,60.67
2019-03-22T20:48:15.654Z,63.70
2019-03-22T20:50:46.211Z,55.60
2019-03-22T20:53:16.738Z,52.25
2019-03-22T20:55:47.353Z,43.70
2019-03-22T20:58:18.022Z,51.65
2019-03-22T21:00:48.575Z,41.23
2019-03-22T21:03:19.247Z,46.20
2019-03-22T21:05:49.805Z,47.43
2019-03-22T21:08:20.333Z,54.18
2019-03-22T21:10:50.877Z,46.55
2019-03-22T21:13:21.478Z,47.60
2019-03-22T21:15:52.031Z,47.70
2019-03-22T21:18:22.565Z,51.90
2019-03-22T21:20:53.055Z,49.90
2019-03-22T21:23:23.686Z,44.00
2019-03-22T21:25:54.326Z,54.03
2019-03-22T21:28:24.871Z,44.70
2019-03-22T21:30:55.598Z,42.50
2019-03-22T21:33:26.023Z,36.40
2019-03-22T21:35:56.644Z,37.58
2019-03-22T21:38:28.322Z,38.95
2019-03-22T21:40:58.818Z,40.92
2019-03-22T21:43:29.355Z,42.00
2019-03-22T21:45:59.837Z,41.83
2019-03-22T21:48:30.412Z,42.25
2019-03-22T21:51:02.055Z,35.68
2019-03-22T21:53:32.575Z,43.23
2019-03-22T21:56:03.059Z,42.48
2019-03-22T21:58:33.595Z,43.40
2019-03-22T22:01:16.180Z,44.35
2019-03-22T22:03:46.626Z,40.08
2019-03-22T22:06:17.121Z,42.00
2019-03-22T22:08:50.206Z,48.92
2019-03-22T22:11:37.452Z,44.73
2019-03-22T22:14:07.895Z,45.90
2019-03-22T22:16:38.382Z,44.23
2019-03-22T22:19:09.012Z,38.08
2019-03-22T22:21:39.550Z,46.50
2019-03-22T22:24:10.065Z,45.12
2019-03-22T22:26:40.549Z,44.50
2019-03-22T22:29:11.119Z,44.60
2019-03-22T22:31:41.645Z,33.88
2019-03-22T22:34:12.115Z,30.60
2019-03-22T22:36:42.633Z,35.30
2019-03-22T22:39:17.825Z,32.58
2019-03-22T22:41:48.364Z,37.67
2019-03-22T22:44:18.826Z,39.85
2019-03-22T22:46:49.368Z,48.63
2019-03-22T22:49:19.816Z,54.75
2019-03-22T22:51:50.292Z,55.73
2019-03-22T22:54:20.810Z,57.17
2019-03-22T22:56:52.351Z,48.75
2019-03-22T22:59:22.881Z,48.15
2019-03-22T23:01:53.369Z,47.27
2019-03-22T23:04:23.889Z,48.48
2019-03-22T23:06:54.360Z,45.20
2019-03-22T23:09:24.825Z,41.40
2019-03-22T23:11:55.369Z,36.15
2019-03-22T23:14:27.420Z,35.50
2019-03-22T23:16:57.901Z,40.50
2019-03-22T23:19:28.436Z,41.53
2019-03-22T23:21:58.917Z,40.83
2019-03-22T23:24:29.426Z,42.90
2019-03-22T23:27:00.172Z,47.38
2019-03-22T23:29:30.970Z,42.62
2019-03-22T23:32:01.509Z,41.18
2019-03-22T23:34:32.099Z,40.55
2019-03-22T23:37:02.673Z,44.40
2019-03-22T23:39:33.231Z,36.45
2019-03-22T23:42:03.783Z,37.85
2019-03-22T23:44:34.350Z,36.42
2019-03-22T23:47:04.907Z,35.75
2019-03-22T23:49:35.359Z,35.70
2019-03-22T23:52:05.839Z,35.17
2019-03-22T23:54:36.378Z,35.48
2019-03-22T23:57:06.929Z,38.30
2019-03-22T23:59:37.520Z,41.33
